Weather at Ouvéa Airport

Public forecast

Using degrees Celsius for public forecast. Weather courtesy of forecast.io.

Closest aviation weather report (METAR) to Ouvéa Airport

Closest report is La Tontouta International Airport, 84.9 nm (157.3 km) SSW.

2023/02/08 00:00 (retrieved 13 minutes ago)

NWWW 080000Z AUTO 11005KT 060V170 9999 BKN054 BKN082 31/25 Q1005 TEMPO 4000 SHRA BKN014 FEW018TCU BECMG 24010KT

Aviation forecast (TAF) for Ouvéa Airport

Forecast is more than 12 hours old.

2023/02/07 08:00 Ammendment (retrieved 16 hours ago)

TAF AMD NWWE 070831Z 0708/0806 CNL TAF AMD NWWV 070831Z 0708/0806 CNL